sensor_id;sensor_type;location;lat;lon;timestamp;pressure;altitude;pressure_sealevel;temperature;humidity
29169;BME280;16219;42.864;23.360;2023-02-19T00:01:06;96194.69;;;2.39;100.00
29169;BME280;16219;42.864;23.360;2023-02-19T00:03:33;96192.38;;;2.42;100.00
29169;BME280;16219;42.864;23.360;2023-02-19T00:06:00;96187.75;;;2.55;100.00
29169;BME280;16219;42.864;23.360;2023-02-19T00:08:28;96180.94;;;2.43;100.00
29169;BME280;16219;42.864;23.360;2023-02-19T00:10:59;96186.63;;;2.40;100.00
29169;BME280;16219;42.864;23.360;2023-02-19T00:13:27;96186.13;;;2.43;100.00
29169;BME280;16219;42.864;23.360;2023-02-19T00:15:55;96186.38;;;2.42;100.00
29169;BME280;16219;42.864;23.360;2023-02-19T00:18:22;96180.94;;;2.43;100.00
29169;BME280;16219;42.864;23.360;2023-02-19T00:20:49;96171.50;;;2.37;100.00
29169;BME280;16219;42.864;23.360;2023-02-19T00:23:16;96187.72;;;2.49;100.00
29169;BME280;16219;42.864;23.360;2023-02-19T00:25:43;96185.91;;;2.50;100.00
29169;BME280;16219;42.864;23.360;2023-02-19T00:28:09;96179.88;;;2.44;100.00
29169;BME280;16219;42.864;23.360;2023-02-19T00:30:36;96178.63;;;2.47;100.00
29169;BME280;16219;42.864;23.360;2023-02-19T00:33:05;96165.28;;;2.38;100.00
29169;BME280;16219;42.864;23.360;2023-02-19T00:35:33;96145.38;;;2.27;100.00
29169;BME280;16219;42.864;23.360;2023-02-19T00:38:03;96159.31;;;2.43;100.00
29169;BME280;16219;42.864;23.360;2023-02-19T00:40:30;96161.38;;;2.41;100.00
29169;BME280;16219;42.864;23.360;2023-02-19T00:42:57;96154.59;;;2.40;100.00
29169;BME280;16219;42.864;23.360;2023-02-19T00:45:24;96165.00;;;2.40;100.00
29169;BME280;16219;42.864;23.360;2023-02-19T00:47:51;96165.03;;;2.45;100.00
29169;BME280;16219;42.864;23.360;2023-02-19T00:50:20;96171.00;;;2.40;100.00
29169;BME280;16219;42.864;23.360;2023-02-19T00:52:47;96156.59;;;2.28;100.00
29169;BME280;16219;42.864;23.360;2023-02-19T00:55:14;96176.78;;;2.47;100.00
29169;BME280;16219;42.864;23.360;2023-02-19T00:57:41;96172.53;;;2.36;100.00
29169;BME280;16219;42.864;23.360;2023-02-19T01:00:11;96166.81;;;2.34;100.00
29169;BME280;16219;42.864;23.360;2023-02-19T01:02:42;96155.78;;;2.27;100.00
29169;BME280;16219;42.864;23.360;2023-02-19T01:05:09;96150.53;;;2.17;100.00
29169;BME280;16219;42.864;23.360;2023-02-19T01:07:37;96158.00;;;2.08;100.00
29169;BME280;16219;42.864;23.360;2023-02-19T01:10:05;96146.28;;;2.11;100.00
29169;BME280;16219;42.864;23.360;2023-02-19T01:12:32;96147.41;;;2.20;100.00
29169;BME280;16219;42.864;23.360;2023-02-19T01:14:59;96145.84;;;2.19;100.00
29169;BME280;16219;42.864;23.360;2023-02-19T01:17:25;96148.16;;;2.15;100.00
29169;BME280;16219;42.864;23.360;2023-02-19T01:19:52;96142.59;;;2.07;100.00
29169;BME280;16219;42.864;23.360;2023-02-19T01:22:19;96151.41;;;2.00;100.00
29169;BME280;16219;42.864;23.360;2023-02-19T01:24:48;96157.41;;;2.01;100.00
29169;BME280;16219;42.864;23.360;2023-02-19T01:27:15;96162.22;;;1.87;100.00
29169;BME280;16219;42.864;23.360;2023-02-19T01:29:42;96173.59;;;1.81;100.00
29169;BME280;16219;42.864;23.360;2023-02-19T01:32:09;96180.94;;;1.62;100.00
29169;BME280;16219;42.864;23.360;2023-02-19T01:34:36;96187.47;;;1.43;100.00
29169;BME280;16219;42.864;23.360;2023-02-19T01:37:02;96169.47;;;1.36;100.00
29169;BME280;16219;42.864;23.360;2023-02-19T01:39:30;96180.22;;;1.67;100.00
29169;BME280;16219;42.864;23.360;2023-02-19T01:41:58;96179.25;;;1.78;100.00
29169;BME280;16219;42.864;23.360;2023-02-19T01:47:29;96169.38;;;1.75;100.00
29169;BME280;16219;42.864;23.360;2023-02-19T01:49:56;96158.28;;;1.85;100.00
29169;BME280;16219;42.864;23.360;2023-02-19T01:52:26;96158.38;;;1.95;100.00
29169;BME280;16219;42.864;23.360;2023-02-19T01:54:55;96156.03;;;1.93;100.00
29169;BME280;16219;42.864;23.360;2023-02-19T01:57:28;96161.78;;;1.95;100.00
29169;BME280;16219;42.864;23.360;2023-02-19T02:00:01;96154.50;;;1.97;100.00
29169;BME280;16219;42.864;23.360;2023-02-19T02:02:41;96119.63;;;1.66;100.00
29169;BME280;16219;42.864;23.360;2023-02-19T02:05:14;96159.53;;;1.82;100.00
29169;BME280;16219;42.864;23.360;2023-02-19T02:07:42;96166.22;;;1.73;100.00
29169;BME280;16219;42.864;23.360;2023-02-19T02:10:27;96164.16;;;1.75;100.00
29169;BME280;16219;42.864;23.360;2023-02-19T02:12:57;96152.78;;;1.81;100.00
29169;BME280;16219;42.864;23.360;2023-02-19T02:15:28;96154.84;;;1.79;100.00
29169;BME280;16219;42.864;23.360;2023-02-19T02:18:05;96140.31;;;1.83;100.00
29169;BME280;16219;42.864;23.360;2023-02-19T02:20:51;96139.25;;;1.79;100.00
29169;BME280;16219;42.864;23.360;2023-02-19T02:23:35;96146.75;;;1.75;100.00
29169;BME280;16219;42.864;23.360;2023-02-19T02:26:15;96146.97;;;1.74;100.00
29169;BME280;16219;42.864;23.360;2023-02-19T02:29:35;96146.78;;;1.54;100.00
29169;BME280;16219;42.864;23.360;2023-02-19T02:32:09;96150.03;;;1.66;100.00
29169;BME280;16219;42.864;23.360;2023-02-19T02:34:46;96154.44;;;1.65;100.00
29169;BME280;16219;42.864;23.360;2023-02-19T02:37:15;96148.66;;;1.58;100.00
29169;BME280;16219;42.864;23.360;2023-02-19T02:39:43;96146.88;;;1.64;100.00
29169;BME280;16219;42.864;23.360;2023-02-19T02:42:11;96157.34;;;1.69;100.00
29169;BME280;16219;42.864;23.360;2023-02-19T02:45:22;96159.94;;;1.69;100.00
29169;BME280;16219;42.864;23.360;2023-02-19T02:48:21;96152.63;;;1.66;100.00
29169;BME280;16219;42.864;23.360;2023-02-19T02:50:52;96154.50;;;1.70;100.00
29169;BME280;16219;42.864;23.360;2023-02-19T02:53:26;96126.63;;;1.44;100.00
29169;BME280;16219;42.864;23.360;2023-02-19T02:56:13;96136.88;;;1.50;100.00
29169;BME280;16219;42.864;23.360;2023-02-19T02:58:42;96145.78;;;1.60;100.00
29169;BME280;16219;42.864;23.360;2023-02-19T03:01:14;96146.34;;;1.62;100.00
29169;BME280;16219;42.864;23.360;2023-02-19T03:04:04;96140.84;;;1.58;100.00
29169;BME280;16219;42.864;23.360;2023-02-19T03:06:33;96149.38;;;1.54;100.00
29169;BME280;16219;42.864;23.360;2023-02-19T03:09:08;96157.59;;;1.45;100.00
29169;BME280;16219;42.864;23.360;2023-02-19T03:11:40;96153.38;;;1.39;100.00
29169;BME280;16219;42.864;23.360;2023-02-19T03:14:30;96161.28;;;1.49;100.00
29169;BME280;16219;42.864;23.360;2023-02-19T03:17:35;96163.75;;;1.39;100.00
29169;BME280;16219;42.864;23.360;2023-02-19T03:20:23;96178.56;;;1.17;100.00
29169;BME280;16219;42.864;23.360;2023-02-19T03:22:52;96169.03;;;1.22;100.00
29169;BME280;16219;42.864;23.360;2023-02-19T03:25:22;96174.53;;;1.26;100.00
29169;BME280;16219;42.864;23.360;2023-02-19T03:28:13;96148.53;;;1.04;100.00
29169;BME280;16219;42.864;23.360;2023-02-19T03:30:48;96196.97;;;1.32;100.00
29169;BME280;16219;42.864;23.360;2023-02-19T03:33:17;96194.66;;;1.36;100.00
29169;BME280;16219;42.864;23.360;2023-02-19T03:35:51;96203.78;;;1.38;100.00
29169;BME280;16219;42.864;23.360;2023-02-19T03:38:25;96202.22;;;1.37;100.00
29169;BME280;16219;42.864;23.360;2023-02-19T03:40:59;96205.34;;;1.39;100.00
29169;BME280;16219;42.864;23.360;2023-02-19T03:43:36;96181.88;;;1.12;100.00
29169;BME280;16219;42.864;23.360;2023-02-19T03:46:08;96204.19;;;1.30;100.00
29169;BME280;16219;42.864;23.360;2023-02-19T03:48:46;96207.06;;;1.29;100.00
29169;BME280;16219;42.864;23.360;2023-02-19T03:51:26;96203.09;;;1.26;100.00
29169;BME280;16219;42.864;23.360;2023-02-19T03:54:04;96201.78;;;1.23;100.00
29169;BME280;16219;42.864;23.360;2023-02-19T03:56:42;96203.59;;;1.23;100.00
29169;BME280;16219;42.864;23.360;2023-02-19T03:59:14;96198.69;;;1.27;100.00
29169;BME280;16219;42.864;23.360;2023-02-19T04:01:47;96204.75;;;1.32;100.00
29169;BME280;16219;42.864;23.360;2023-02-19T04:04:17;96201.59;;;1.30;100.00
29169;BME280;16219;42.864;23.360;2023-02-19T04:06:51;96201.59;;;1.08;100.00
29169;BME280;16219;42.864;23.360;2023-02-19T04:09:21;96183.16;;;1.10;100.00
29169;BME280;16219;42.864;23.360;2023-02-19T04:11:57;96191.81;;;1.15;100.00
29169;BME280;16219;42.864;23.360;2023-02-19T04:14:27;96197.13;;;1.25;100.00
29169;BME280;16219;42.864;23.360;2023-02-19T04:17:00;96205.03;;;1.14;100.00
29169;BME280;16219;42.864;23.360;2023-02-19T04:19:30;96194.16;;;1.17;100.00
29169;BME280;16219;42.864;23.360;2023-02-19T04:22:00;96193.06;;;1.13;100.00
29169;BME280;16219;42.864;23.360;2023-02-19T04:24:32;96197.81;;;0.99;100.00
29169;BME280;16219;42.864;23.360;2023-02-19T04:27:02;96202.72;;;0.95;100.00
29169;BME280;16219;42.864;23.360;2023-02-19T04:29:30;96187.13;;;0.95;100.00
29169;BME280;16219;42.864;23.360;2023-02-19T04:31:58;96207.88;;;1.12;100.00
29169;BME280;16219;42.864;23.360;2023-02-19T04:34:25;96209.13;;;1.10;100.00
29169;BME280;16219;42.864;23.360;2023-02-19T04:36:52;96192.94;;;1.03;100.00
29169;BME280;16219;42.864;23.360;2023-02-19T04:39:20;96195.44;;;0.97;100.00
29169;BME280;16219;42.864;23.360;2023-02-19T04:41:47;96219.38;;;0.99;100.00
29169;BME280;16219;42.864;23.360;2023-02-19T04:44:14;96210.44;;;0.90;100.00
29169;BME280;16219;42.864;23.360;2023-02-19T04:46:43;96219.84;;;0.96;100.00
29169;BME280;16219;42.864;23.360;2023-02-19T04:49:11;96221.53;;;1.03;100.00
29169;BME280;16219;42.864;23.360;2023-02-19T04:51:39;96204.69;;;0.88;100.00
29169;BME280;16219;42.864;23.360;2023-02-19T04:54:06;96212.63;;;0.98;100.00
29169;BME280;16219;42.864;23.360;2023-02-19T04:56:35;96211.03;;;0.97;100.00
29169;BME280;16219;42.864;23.360;2023-02-19T04:59:04;96225.50;;;1.10;100.00
29169;BME280;16219;42.864;23.360;2023-02-19T05:01:32;96217.16;;;1.08;100.00
29169;BME280;16219;42.864;23.360;2023-02-19T05:03:59;96224.13;;;0.86;100.00
29169;BME280;16219;42.864;23.360;2023-02-19T05:06:29;96212.97;;;0.85;100.00
29169;BME280;16219;42.864;23.360;2023-02-19T05:08:56;96196.44;;;0.58;100.00
29169;BME280;16219;42.864;23.360;2023-02-19T05:11:23;96220.75;;;0.68;100.00
29169;BME280;16219;42.864;23.360;2023-02-19T05:13:53;96232.78;;;0.74;100.00
29169;BME280;16219;42.864;23.360;2023-02-19T05:16:21;96233.56;;;0.75;100.00
29169;BME280;16219;42.864;23.360;2023-02-19T05:18:48;96228.69;;;0.79;100.00
29169;BME280;16219;42.864;23.360;2023-02-19T05:21:15;96240.03;;;0.72;100.00
29169;BME280;16219;42.864;23.360;2023-02-19T05:23:45;96243.88;;;0.70;100.00
29169;BME280;16219;42.864;23.360;2023-02-19T05:26:14;96245.69;;;0.86;100.00
29169;BME280;16219;42.864;23.360;2023-02-19T05:28:43;96248.91;;;0.93;100.00
29169;BME280;16219;42.864;23.360;2023-02-19T05:31:12;96247.13;;;0.94;100.00
29169;BME280;16219;42.864;23.360;2023-02-19T05:33:39;96254.97;;;0.99;100.00
29169;BME280;16219;42.864;23.360;2023-02-19T05:36:09;96247.97;;;0.99;100.00
29169;BME280;16219;42.864;23.360;2023-02-19T05:38:37;96245.84;;;0.96;100.00
29169;BME280;16219;42.864;23.360;2023-02-19T05:41:09;96253.28;;;1.10;100.00
29169;BME280;16219;42.864;23.360;2023-02-19T05:43:37;96244.34;;;1.00;100.00
29169;BME280;16219;42.864;23.360;2023-02-19T05:46:04;96267.88;;;1.11;100.00
29169;BME280;16219;42.864;23.360;2023-02-19T05:48:32;96255.75;;;1.16;100.00
29169;BME280;16219;42.864;23.360;2023-02-19T05:51:01;96252.53;;;0.92;100.00
29169;BME280;16219;42.864;23.360;2023-02-19T05:53:30;96265.03;;;1.12;100.00
29169;BME280;16219;42.864;23.360;2023-02-19T05:55:58;96270.38;;;1.22;100.00
29169;BME280;16219;42.864;23.360;2023-02-19T05:58:25;96273.66;;;1.35;100.00
29169;BME280;16219;42.864;23.360;2023-02-19T06:00:52;96279.00;;;1.45;100.00
29169;BME280;16219;42.864;23.360;2023-02-19T06:03:20;96276.38;;;1.62;100.00
29169;BME280;16219;42.864;23.360;2023-02-19T06:05:49;96275.41;;;1.68;100.00
29169;BME280;16219;42.864;23.360;2023-02-19T06:08:16;96284.34;;;1.77;100.00
29169;BME280;16219;42.864;23.360;2023-02-19T06:10:43;96284.41;;;1.82;100.00
29169;BME280;16219;42.864;23.360;2023-02-19T06:13:12;96287.56;;;1.84;100.00
29169;BME280;16219;42.864;23.360;2023-02-19T06:15:39;96277.53;;;1.93;100.00
29169;BME280;16219;42.864;23.360;2023-02-19T06:18:06;96274.84;;;2.10;100.00
29169;BME280;16219;42.864;23.360;2023-02-19T06:20:33;96280.34;;;2.13;100.00
29169;BME280;16219;42.864;23.360;2023-02-19T06:23:02;96274.41;;;2.18;100.00
29169;BME280;16219;42.864;23.360;2023-02-19T06:25:29;96290.16;;;2.33;100.00
29169;BME280;16219;42.864;23.360;2023-02-19T06:27:57;96279.97;;;2.27;100.00
29169;BME280;16219;42.864;23.360;2023-02-19T06:30:24;96293.84;;;2.37;100.00
29169;BME280;16219;42.864;23.360;2023-02-19T06:32:51;96296.53;;;2.42;100.00
29169;BME280;16219;42.864;23.360;2023-02-19T06:35:19;96302.53;;;2.43;100.00
29169;BME280;16219;42.864;23.360;2023-02-19T06:37:46;96295.78;;;2.47;100.00
29169;BME280;16219;42.864;23.360;2023-02-19T06:40:15;96283.13;;;2.56;100.00
29169;BME280;16219;42.864;23.360;2023-02-19T06:42:42;96292.06;;;2.65;100.00
29169;BME280;16219;42.864;23.360;2023-02-19T06:45:10;96292.97;;;2.81;100.00
29169;BME280;16219;42.864;23.360;2023-02-19T06:47:37;96297.22;;;2.92;100.00
29169;BME280;16219;42.864;23.360;2023-02-19T06:50:04;96298.56;;;2.94;100.00
29169;BME280;16219;42.864;23.360;2023-02-19T06:52:31;96313.22;;;3.06;100.00
29169;BME280;16219;42.864;23.360;2023-02-19T06:54:58;96313.81;;;3.13;100.00
29169;BME280;16219;42.864;23.360;2023-02-19T06:57:26;96314.94;;;3.27;100.00
29169;BME280;16219;42.864;23.360;2023-02-19T06:59:54;96301.81;;;3.12;100.00
29169;BME280;16219;42.864;23.360;2023-02-19T07:02:21;96318.69;;;3.36;100.00
29169;BME280;16219;42.864;23.360;2023-02-19T07:04:48;96316.69;;;3.48;100.00
29169;BME280;16219;42.864;23.360;2023-02-19T07:07:14;96318.28;;;3.60;100.00
29169;BME280;16219;42.864;23.360;2023-02-19T07:09:42;96286.97;;;3.55;100.00
29169;BME280;16219;42.864;23.360;2023-02-19T07:12:09;96306.41;;;3.79;100.00
29169;BME280;16219;42.864;23.360;2023-02-19T07:14:37;96291.53;;;3.85;100.00
29169;BME280;16219;42.864;23.360;2023-02-19T07:17:05;96298.72;;;4.20;100.00
29169;BME280;16219;42.864;23.360;2023-02-19T07:19:32;96294.31;;;4.25;100.00
29169;BME280;16219;42.864;23.360;2023-02-19T07:21:58;96268.72;;;4.28;100.00
29169;BME280;16219;42.864;23.360;2023-02-19T07:24:25;96285.75;;;4.56;100.00
29169;BME280;16219;42.864;23.360;2023-02-19T07:26:53;96280.28;;;4.67;100.00
29169;BME280;16219;42.864;23.360;2023-02-19T07:29:20;96280.56;;;4.81;100.00
29169;BME280;16219;42.864;23.360;2023-02-19T07:31:48;96279.50;;;5.03;100.00
29169;BME280;16219;42.864;23.360;2023-02-19T07:34:18;96267.19;;;5.08;100.00
29169;BME280;16219;42.864;23.360;2023-02-19T07:36:45;96280.53;;;5.22;100.00
29169;BME280;16219;42.864;23.360;2023-02-19T07:39:13;96283.91;;;5.38;100.00
29169;BME280;16219;42.864;23.360;2023-02-19T07:41:41;96281.78;;;5.65;100.00
29169;BME280;16219;42.864;23.360;2023-02-19T07:44:08;96284.56;;;5.89;100.00
29169;BME280;16219;42.864;23.360;2023-02-19T07:46:38;96280.91;;;5.95;100.00
29169;BME280;16219;42.864;23.360;2023-02-19T07:49:09;96269.56;;;6.10;100.00
29169;BME280;16219;42.864;23.360;2023-02-19T07:51:36;96288.09;;;6.29;100.00
29169;BME280;16219;42.864;23.360;2023-02-19T07:54:04;96272.31;;;6.39;100.00
29169;BME280;16219;42.864;23.360;2023-02-19T07:56:32;96284.44;;;6.69;100.00
29169;BME280;16219;42.864;23.360;2023-02-19T07:58:59;96268.91;;;6.78;100.00
29169;BME280;16219;42.864;23.360;2023-02-19T08:01:27;96266.19;;;6.93;100.00
29169;BME280;16219;42.864;23.360;2023-02-19T08:04:10;96287.97;;;7.52;100.00
29169;BME280;16219;42.864;23.360;2023-02-19T08:06:38;96287.41;;;7.79;100.00
29169;BME280;16219;42.864;23.360;2023-02-19T08:09:05;96273.25;;;7.99;100.00
29169;BME280;16219;42.864;23.360;2023-02-19T08:11:32;96246.28;;;8.12;100.00
29169;BME280;16219;42.864;23.360;2023-02-19T08:14:16;96277.94;;;8.45;100.00
29169;BME280;16219;42.864;23.360;2023-02-19T08:16:47;96265.44;;;8.56;100.00
29169;BME280;16219;42.864;23.360;2023-02-19T08:19:16;96269.25;;;8.82;100.00
29169;BME280;16219;42.864;23.360;2023-02-19T08:21:44;96268.16;;;9.35;100.00
29169;BME280;16219;42.864;23.360;2023-02-19T08:24:11;96244.78;;;9.61;100.00
29169;BME280;16219;42.864;23.360;2023-02-19T08:26:37;96263.00;;;10.26;100.00
29169;BME280;16219;42.864;23.360;2023-02-19T08:29:05;96269.84;;;10.63;100.00
29169;BME280;16219;42.864;23.360;2023-02-19T08:31:33;96259.34;;;10.94;99.81
29169;BME280;16219;42.864;23.360;2023-02-19T08:34:04;96258.09;;;11.14;100.00
29169;BME280;16219;42.864;23.360;2023-02-19T08:36:34;96242.75;;;11.25;99.90
29169;BME280;16219;42.864;23.360;2023-02-19T08:39:02;96264.50;;;11.53;98.89
29169;BME280;16219;42.864;23.360;2023-02-19T08:41:30;96253.03;;;11.58;97.32
29169;BME280;16219;42.864;23.360;2023-02-19T08:43:57;96268.16;;;11.66;94.27
29169;BME280;16219;42.864;23.360;2023-02-19T08:46:24;96264.16;;;11.77;93.82
29169;BME280;16219;42.864;23.360;2023-02-19T08:48:51;96267.63;;;11.86;91.44
29169;BME280;16219;42.864;23.360;2023-02-19T08:51:18;96263.00;;;12.00;90.36
29169;BME280;16219;42.864;23.360;2023-02-19T08:53:47;96257.09;;;12.04;90.20
29169;BME280;16219;42.864;23.360;2023-02-19T08:56:15;96251.34;;;12.01;87.95
29169;BME280;16219;42.864;23.360;2023-02-19T08:58:44;96233.75;;;12.06;83.57
29169;BME280;16219;42.864;23.360;2023-02-19T09:01:13;96229.41;;;12.10;85.14
29169;BME280;16219;42.864;23.360;2023-02-19T09:03:41;96243.16;;;12.38;86.13
29169;BME280;16219;42.864;23.360;2023-02-19T09:06:13;96241.13;;;12.43;85.78
29169;BME280;16219;42.864;23.360;2023-02-19T09:08:40;96235.22;;;12.46;80.26
29169;BME280;16219;42.864;23.360;2023-02-19T09:11:09;96229.00;;;12.60;83.08
29169;BME280;16219;42.864;23.360;2023-02-19T09:13:36;96203.00;;;12.44;78.85
29169;BME280;16219;42.864;23.360;2023-02-19T09:16:03;96217.63;;;12.68;78.56
29169;BME280;16219;42.864;23.360;2023-02-19T09:18:31;96209.53;;;12.73;76.27
29169;BME280;16219;42.864;23.360;2023-02-19T09:20:59;96216.66;;;12.90;74.75
29169;BME280;16219;42.864;23.360;2023-02-19T09:23:26;96207.78;;;12.94;76.43
29169;BME280;16219;42.864;23.360;2023-02-19T09:25:57;96211.69;;;12.97;76.71
29169;BME280;16219;42.864;23.360;2023-02-19T09:28:29;96220.06;;;13.08;76.34
29169;BME280;16219;42.864;23.360;2023-02-19T09:30:56;96215.66;;;13.20;76.69
29169;BME280;16219;42.864;23.360;2023-02-19T09:33:23;96207.91;;;13.24;71.65
29169;BME280;16219;42.864;23.360;2023-02-19T09:35:50;96196.31;;;13.37;77.49
29169;BME280;16219;42.864;23.360;2023-02-19T09:38:17;96198.31;;;13.49;73.47
29169;BME280;16219;42.864;23.360;2023-02-19T09:40:44;96190.69;;;13.47;74.58
29169;BME280;16219;42.864;23.360;2023-02-19T09:43:17;96201.09;;;13.53;75.46
29169;BME280;16219;42.864;23.360;2023-02-19T09:45:47;96200.91;;;13.58;70.46
29169;BME280;16219;42.864;23.360;2023-02-19T09:48:16;96195.91;;;13.65;68.91
29169;BME280;16219;42.864;23.360;2023-02-19T09:50:46;96192.69;;;13.80;71.80
29169;BME280;16219;42.864;23.360;2023-02-19T09:53:17;96188.94;;;14.11;67.06
29169;BME280;16219;42.864;23.360;2023-02-19T09:55:47;96175.00;;;14.14;64.02
29169;BME280;16219;42.864;23.360;2023-02-19T09:58:20;96178.63;;;14.30;67.43
29169;BME280;16219;42.864;23.360;2023-02-19T10:00:54;96175.22;;;14.50;62.10
29169;BME280;16219;42.864;23.360;2023-02-19T10:03:25;96160.88;;;14.43;61.88
29169;BME280;16219;42.864;23.360;2023-02-19T10:05:58;96167.88;;;14.47;60.76
29169;BME280;16219;42.864;23.360;2023-02-19T10:08:26;96159.34;;;14.42;61.59
29169;BME280;16219;42.864;23.360;2023-02-19T10:10:58;96160.81;;;14.31;63.51
29169;BME280;16219;42.864;23.360;2023-02-19T10:13:30;96149.63;;;14.25;61.80
29169;BME280;16219;42.864;23.360;2023-02-19T10:16:02;96147.56;;;14.31;64.95
29169;BME280;16219;42.864;23.360;2023-02-19T10:18:37;96132.66;;;14.38;61.89
29169;BME280;16219;42.864;23.360;2023-02-19T10:21:06;96134.97;;;14.40;62.10
29169;BME280;16219;42.864;23.360;2023-02-19T10:23:33;96122.50;;;14.40;62.51
29169;BME280;16219;42.864;23.360;2023-02-19T10:26:00;96122.91;;;14.51;63.30
29169;BME280;16219;42.864;23.360;2023-02-19T10:28:29;96112.75;;;14.53;60.87
29169;BME280;16219;42.864;23.360;2023-02-19T10:31:00;96086.69;;;14.46;61.53
29169;BME280;16219;42.864;23.360;2023-02-19T10:33:28;96077.91;;;14.55;60.29
29169;BME280;16219;42.864;23.360;2023-02-19T10:35:57;96093.31;;;14.61;60.43
29169;BME280;16219;42.864;23.360;2023-02-19T10:38:29;96088.88;;;14.78;63.04
29169;BME280;16219;42.864;23.360;2023-02-19T10:41:00;96081.28;;;14.88;60.17
29169;BME280;16219;42.864;23.360;2023-02-19T10:43:29;96078.19;;;14.98;60.08
29169;BME280;16219;42.864;23.360;2023-02-19T10:46:03;96077.53;;;15.02;58.67
29169;BME280;16219;42.864;23.360;2023-02-19T10:48:34;96075.31;;;15.04;59.62
29169;BME280;16219;42.864;23.360;2023-02-19T10:51:05;96068.34;;;15.11;57.51
29169;BME280;16219;42.864;23.360;2023-02-19T10:53:39;96065.91;;;15.06;56.95
29169;BME280;16219;42.864;23.360;2023-02-19T10:56:08;96056.94;;;15.11;57.14
29169;BME280;16219;42.864;23.360;2023-02-19T10:58:36;96050.38;;;15.20;56.89
29169;BME280;16219;42.864;23.360;2023-02-19T11:01:16;96042.75;;;15.19;56.53
29169;BME280;16219;42.864;23.360;2023-02-19T11:03:49;96043.41;;;15.16;55.61
29169;BME280;16219;42.864;23.360;2023-02-19T11:06:19;96042.75;;;15.31;58.05
29169;BME280;16219;42.864;23.360;2023-02-19T11:08:55;96033.66;;;15.32;56.13
29169;BME280;16219;42.864;23.360;2023-02-19T11:11:31;96042.41;;;15.45;56.18
29169;BME280;16219;42.864;23.360;2023-02-19T11:14:02;96019.81;;;15.39;55.05
29169;BME280;16219;42.864;23.360;2023-02-19T11:16:40;96020.81;;;15.46;53.71
29169;BME280;16219;42.864;23.360;2023-02-19T11:19:35;96023.47;;;15.46;54.60
29169;BME280;16219;42.864;23.360;2023-02-19T11:22:26;96024.13;;;15.56;54.34
29169;BME280;16219;42.864;23.360;2023-02-19T11:24:55;96019.88;;;15.67;54.78
29169;BME280;16219;42.864;23.360;2023-02-19T11:27:26;96006.13;;;15.77;53.31
29169;BME280;16219;42.864;23.360;2023-02-19T11:29:53;95999.78;;;15.82;53.76
29169;BME280;16219;42.864;23.360;2023-02-19T11:32:25;95984.41;;;15.75;54.74
29169;BME280;16219;42.864;23.360;2023-02-19T11:35:15;95994.44;;;15.94;53.07
29169;BME280;16219;42.864;23.360;2023-02-19T11:37:54;95985.84;;;16.00;52.73
29169;BME280;16219;42.864;23.360;2023-02-19T11:40:34;95986.28;;;16.03;53.61
29169;BME280;16219;42.864;23.360;2023-02-19T11:43:11;95972.47;;;16.13;51.52
29169;BME280;16219;42.864;23.360;2023-02-19T11:45:46;95962.69;;;16.17;51.40
29169;BME280;16219;42.864;23.360;2023-02-19T11:48:49;95973.03;;;16.18;51.28
29169;BME280;16219;42.864;23.360;2023-02-19T11:51:29;95962.97;;;16.12;51.74
29169;BME280;16219;42.864;23.360;2023-02-19T11:54:09;95966.53;;;16.04;50.74
29169;BME280;16219;42.864;23.360;2023-02-19T11:56:40;95944.28;;;15.96;50.88
29169;BME280;16219;42.864;23.360;2023-02-19T11:59:16;95953.59;;;16.18;51.53
29169;BME280;16219;42.864;23.360;2023-02-19T12:02:06;95935.91;;;16.10;51.57
29169;BME280;16219;42.864;23.360;2023-02-19T12:10:49;95931.13;;;16.31;50.87
29169;BME280;16219;42.864;23.360;2023-02-19T12:13:30;95927.16;;;16.25;49.78
29169;BME280;16219;42.864;23.360;2023-02-19T12:16:11;95925.63;;;16.40;50.69
29169;BME280;16219;42.864;23.360;2023-02-19T12:19:04;95904.16;;;16.48;49.95
29169;BME280;16219;42.864;23.360;2023-02-19T12:21:46;95904.16;;;16.48;50.54
29169;BME280;16219;42.864;23.360;2023-02-19T12:27:22;95890.41;;;16.31;47.76
29169;BME280;16219;42.864;23.360;2023-02-19T12:35:45;95867.00;;;16.56;47.70
29169;BME280;16219;42.864;23.360;2023-02-19T12:38:20;95878.09;;;16.73;48.45
29169;BME280;16219;42.864;23.360;2023-02-19T12:41:09;95848.28;;;16.52;48.93
29169;BME280;16219;42.864;23.360;2023-02-19T12:43:45;95852.91;;;16.71;47.66
29169;BME280;16219;42.864;23.360;2023-02-19T12:46:20;95842.53;;;16.66;48.63
29169;BME280;16219;42.864;23.360;2023-02-19T12:48:52;95847.75;;;16.78;48.65
29169;BME280;16219;42.864;23.360;2023-02-19T12:51:27;95819.25;;;16.63;47.61
29169;BME280;16219;42.864;23.360;2023-02-19T12:53:59;95839.34;;;16.76;48.35
29169;BME280;16219;42.864;23.360;2023-02-19T12:56:33;95839.25;;;16.72;47.63
29169;BME280;16219;42.864;23.360;2023-02-19T12:59:05;95838.56;;;16.76;47.69
29169;BME280;16219;42.864;23.360;2023-02-19T13:01:41;95835.03;;;16.71;46.71
29169;BME280;16219;42.864;23.360;2023-02-19T13:04:21;95818.66;;;16.54;45.50
29169;BME280;16219;42.864;23.360;2023-02-19T13:06:55;95802.69;;;16.54;46.42
29169;BME280;16219;42.864;23.360;2023-02-19T13:09:28;95813.31;;;16.69;46.56
29169;BME280;16219;42.864;23.360;2023-02-19T13:12:03;95815.78;;;16.78;46.39
29169;BME280;16219;42.864;23.360;2023-02-19T13:14:34;95809.16;;;16.72;47.08
29169;BME280;16219;42.864;23.360;2023-02-19T13:17:07;95811.16;;;16.75;47.01
29169;BME280;16219;42.864;23.360;2023-02-19T13:19:39;95802.19;;;16.83;45.20
29169;BME280;16219;42.864;23.360;2023-02-19T13:22:15;95798.69;;;16.79;45.60
29169;BME280;16219;42.864;23.360;2023-02-19T13:25:02;95788.19;;;16.70;44.57
29169;BME280;16219;42.864;23.360;2023-02-19T13:27:56;95782.09;;;16.70;45.64
29169;BME280;16219;42.864;23.360;2023-02-19T13:30:42;95784.34;;;16.68;44.79